Time;durP1;ratioP1;P1;durP2;ratioP2;P2;SDS_P1;SDS_P2;PMS_P1;PMS_P2;Temp;Humidity;BMP_temperature;BMP_pressure;BME280_temperature;BME280_humidity;BME280_pressure;Samples;Min_cycle;Max_cycle;Signal;HPM_P1;HPM_P2
2022/09/06 00:00:28;;;;;;;8.30;5.33;;;;;;;19.21;64.38;101246.59;6043755;28;20042;-65
2022/09/06 00:03:26;;;;;;;11.25;5.80;;;;;;;19.07;64.39;101228.63;6049834;28;20108;-64
2022/09/06 00:06:21;;;;;;;9.73;6.03;;;;;;;19.06;64.63;101234.16;6048723;28;20037;-65
2022/09/06 00:09:16;;;;;;;9.03;5.80;;;;;;;19.13;64.51;101229.72;6049605;28;20046;-64
2022/09/06 00:12:12;;;;;;;6.93;5.07;;;;;;;19.03;64.63;101233.53;6047880;28;20032;-64
2022/09/06 00:15:07;;;;;;;8.13;5.60;;;;;;;19.08;64.69;101234.84;6047688;28;20485;-63
2022/09/06 00:18:05;;;;;;;7.10;5.28;;;;;;;19.01;64.32;101230.19;6048009;28;20053;-64
2022/09/06 00:21:02;;;;;;;10.38;5.35;;;;;;;18.98;64.52;101219.81;6037831;28;20042;-65
2022/09/06 00:23:57;;;;;;;9.73;6.20;;;;;;;18.99;64.55;101226.88;6049215;28;20041;-64
2022/09/06 00:26:52;;;;;;;8.80;5.53;;;;;;;19.00;64.45;101233.06;6048422;28;20037;-63
2022/09/06 00:29:47;;;;;;;10.33;5.60;;;;;;;18.93;64.48;101227.63;6049169;28;20072;-63
2022/09/06 00:32:43;;;;;;;9.20;5.43;;;;;;;18.94;64.44;101226.56;6047603;28;20272;-64
2022/09/06 00:35:38;;;;;;;6.60;5.07;;;;;;;18.89;64.44;101220.94;6048886;28;20369;-64
2022/09/06 00:38:33;;;;;;;9.37;5.80;;;;;;;18.95;64.35;101228.25;6048145;28;20077;-65
2022/09/06 00:41:29;;;;;;;8.73;5.53;;;;;;;18.84;64.39;101227.91;6047798;28;20025;-65
2022/09/06 00:44:24;;;;;;;9.57;5.63;;;;;;;18.83;64.56;101228.94;6048736;28;20036;-65
2022/09/06 00:47:19;;;;;;;11.10;5.43;;;;;;;18.80;64.52;101227.47;6046912;28;20040;-63
2022/09/06 00:50:16;;;;;;;9.97;5.60;;;;;;;18.82;64.41;101230.78;6047948;28;20062;-63
2022/09/06 00:53:12;;;;;;;9.40;5.90;;;;;;;18.76;64.30;101215.41;6048690;28;20248;-64
2022/09/06 00:56:07;;;;;;;8.87;5.53;;;;;;;18.76;64.56;101226.16;6048147;28;20042;-64
2022/09/06 00:59:03;;;;;;;9.30;5.50;;;;;;;18.66;64.50;101197.91;6047624;28;20392;-65
2022/09/06 01:01:58;;;;;;;8.13;4.88;;;;;;;18.68;64.66;101218.19;6041455;28;20041;-64
2022/09/06 01:04:53;;;;;;;7.77;5.30;;;;;;;18.68;64.79;101228.94;6047740;28;20029;-65
2022/09/06 01:08:33;;;;;;;11.10;6.07;;;;;;;18.67;64.61;101227.25;6044775;28;20065;-64
2022/09/06 01:12:06;;;;;;;8.40;5.30;;;;;;;18.66;64.45;101236.34;6039915;28;20050;-63
2022/09/06 01:15:28;;;;;;;6.80;4.97;;;;;;;18.61;64.72;101228.03;6062677;28;20402;-64
2022/09/06 01:18:45;;;;;;;9.73;4.75;;;;;;;18.56;64.67;101227.75;6063222;28;20044;-64
2022/09/06 01:21:50;;;;;;;10.52;5.35;;;;;;;18.52;64.78;101229.13;6045102;28;20058;-64
2022/09/06 01:25:02;;;;;;;8.45;5.03;;;;;;;18.41;64.84;101226.84;6047641;28;20041;-63
2022/09/06 01:28:03;;;;;;;7.70;5.03;;;;;;;18.48;64.93;101227.00;6047807;28;20454;-64
2022/09/06 01:31:10;;;;;;;8.55;5.47;;;;;;;18.30;65.08;101208.50;6046258;28;20053;-65
2022/09/06 01:34:05;;;;;;;8.85;5.00;;;;;;;18.31;65.09;101204.81;6034165;28;20052;-64
2022/09/06 01:37:08;;;;;;;7.88;5.60;;;;;;;18.23;65.29;101191.47;6046016;28;20041;-63
2022/09/06 01:40:04;;;;;;;7.55;5.15;;;;;;;18.24;65.37;101199.34;6046914;28;20034;-64
2022/09/06 01:43:00;;;;;;;8.52;5.20;;;;;;;18.26;65.37;101201.84;6038404;28;20088;-65
2022/09/06 01:46:10;;;;;;;7.43;5.13;;;;;;;18.18;65.37;101200.06;6046387;28;20433;-65
2022/09/06 01:49:17;;;;;;;7.43;4.60;;;;;;;18.21;65.40;101213.13;6046595;28;20672;-64
2022/09/06 01:52:17;;;;;;;8.55;5.40;;;;;;;18.13;65.27;101196.25;6054088;28;20354;-64
2022/09/06 01:55:35;;;;;;;8.05;5.28;;;;;;;18.21;65.20;101217.66;6061936;28;20045;-65
2022/09/06 01:59:12;;;;;;;10.80;5.60;;;;;;;18.16;65.31;101222.75;6061336;28;20044;-64
2022/09/06 02:02:13;;;;;;;10.25;5.40;;;;;;;18.15;65.20;101224.63;6044572;28;20503;-64
2022/09/06 02:05:22;;;;;;;7.50;5.07;;;;;;;18.14;65.09;101220.25;6046813;28;20026;-65
2022/09/06 02:08:37;;;;;;;9.23;4.90;;;;;;;18.01;65.19;101206.63;6046880;28;20034;-63
2022/09/06 02:11:38;;;;;;;8.48;4.93;;;;;;;17.91;65.21;101200.66;6049629;28;20042;-63
2022/09/06 02:14:40;;;;;;;7.15;4.85;;;;;;;17.92;65.21;101198.81;6045520;28;20081;-65
2022/09/06 02:17:42;;;;;;;7.75;5.03;;;;;;;17.96;64.74;101213.56;6046263;28;20113;-64
2022/09/06 02:20:41;;;;;;;8.45;4.85;;;;;;;17.83;65.16;101206.09;6057242;28;20598;-64
2022/09/06 02:23:39;;;;;;;9.32;4.88;;;;;;;17.85;65.61;101209.47;6035919;28;20037;-63
2022/09/06 02:26:37;;;;;;;6.25;4.25;;;;;;;17.87;65.12;101212.78;6042135;28;20034;-64
2022/09/06 02:29:33;;;;;;;7.57;4.93;;;;;;;17.84;65.12;101205.09;6045201;28;20038;-64
2022/09/06 02:32:33;;;;;;;7.70;4.88;;;;;;;17.82;65.22;101210.66;6043199;28;20037;-63
2022/09/06 02:35:28;;;;;;;6.30;4.43;;;;;;;17.78;65.30;101208.50;6046008;28;20048;-63
2022/09/06 02:38:25;;;;;;;10.35;4.95;;;;;;;17.71;64.87;101210.25;6032820;28;20418;-65
2022/09/06 02:41:21;;;;;;;8.50;4.72;;;;;;;17.70;64.93;101196.00;6044093;28;20474;-64
2022/09/06 02:44:17;;;;;;;8.30;4.78;;;;;;;17.67;64.91;101201.72;6056145;28;20108;-64
2022/09/06 02:47:12;;;;;;;9.47;4.37;;;;;;;17.66;65.02;101205.44;6046235;28;20034;-63
2022/09/06 02:50:07;;;;;;;9.73;4.87;;;;;;;17.64;64.75;101204.75;6042168;28;20033;-63
2022/09/06 02:53:11;;;;;;;7.73;4.73;;;;;;;17.58;64.83;101200.09;6044777;28;20033;-65
2022/09/06 02:56:07;;;;;;;7.05;4.75;;;;;;;17.60;64.34;101200.78;6045253;28;20273;-64
2022/09/06 02:59:04;;;;;;;6.88;4.38;;;;;;;17.64;64.53;101202.06;6045751;28;20034;-64
2022/09/06 03:01:59;;;;;;;6.32;4.28;;;;;;;17.63;64.45;101203.09;6043826;28;20461;-64
2022/09/06 03:04:54;;;;;;;8.53;4.27;;;;;;;17.63;64.24;101194.22;6045739;28;20080;-63
2022/09/06 03:07:50;;;;;;;8.23;4.50;;;;;;;17.47;64.16;101184.44;6045449;28;20091;-65
2022/09/06 03:10:49;;;;;;;9.02;4.97;;;;;;;17.53;64.23;101190.91;6043648;28;20108;-63
2022/09/06 03:13:45;;;;;;;6.78;4.75;;;;;;;17.46;64.20;101172.03;6045539;28;20038;-64
2022/09/06 03:16:40;;;;;;;12.87;4.90;;;;;;;17.45;63.94;101183.75;6045900;28;20088;-64
2022/09/06 03:19:35;;;;;;;10.13;4.50;;;;;;;17.47;63.85;101183.59;6045570;28;20272;-63
2022/09/06 03:22:31;;;;;;;9.90;4.57;;;;;;;17.42;64.02;101175.25;6041346;28;20826;-63
2022/09/06 03:25:26;;;;;;;7.40;4.55;;;;;;;17.43;63.37;101183.09;6059240;28;20049;-63
2022/09/06 03:28:22;;;;;;;8.87;5.37;;;;;;;17.39;63.65;101187.16;6045339;28;20029;-63
2022/09/06 03:31:17;;;;;;;7.13;4.53;;;;;;;17.34;63.61;101161.91;6042146;28;20054;-62
2022/09/06 03:34:12;;;;;;;7.93;4.73;;;;;;;17.37;63.33;101177.59;6048780;28;20041;-63
2022/09/06 03:37:08;;;;;;;8.90;4.10;;;;;;;17.25;63.65;101163.81;6032464;28;20473;-64
2022/09/06 03:40:05;;;;;;;8.60;6.05;;;;;;;17.35;63.46;101183.16;6038713;28;20046;-64
2022/09/06 03:43:00;;;;;;;8.10;4.85;;;;;;;17.29;63.29;101175.81;6049408;28;20406;-62
2022/09/06 03:45:56;;;;;;;6.27;3.97;;;;;;;17.30;63.30;101177.50;6050122;28;20041;-63
2022/09/06 03:48:51;;;;;;;9.35;4.07;;;;;;;17.27;63.39;101172.50;6049601;28;20018;-65
2022/09/06 03:51:46;;;;;;;6.80;4.37;;;;;;;17.31;63.02;101173.81;6048674;28;20045;-67
2022/09/06 03:54:42;;;;;;;9.07;4.80;;;;;;;17.16;63.10;101167.53;6049807;28;20042;-65
2022/09/06 03:57:37;;;;;;;9.50;4.40;;;;;;;17.22;63.44;101180.25;6036326;28;20113;-66
2022/09/06 04:00:32;;;;;;;8.37;4.47;;;;;;;17.13;63.43;101159.84;6048948;28;20037;-63
2022/09/06 04:03:28;;;;;;;6.68;4.50;;;;;;;17.18;63.61;101173.53;6041620;28;20080;-63
2022/09/06 04:06:23;;;;;;;11.17;5.53;;;;;;;17.13;63.41;101165.22;6049890;28;20730;-65
2022/09/06 04:09:19;;;;;;;6.47;4.57;;;;;;;17.13;63.17;101175.94;6049550;28;20034;-64
2022/09/06 04:12:14;;;;;;;6.68;4.13;;;;;;;17.13;63.42;101182.13;6037988;28;20034;-62
2022/09/06 04:15:10;;;;;;;7.07;4.05;;;;;;;17.14;63.41;101182.97;6048621;28;20470;-64
2022/09/06 04:18:05;;;;;;;6.63;4.03;;;;;;;17.08;63.00;101171.13;6047161;28;20037;-63
2022/09/06 04:21:00;;;;;;;7.90;4.53;;;;;;;17.10;63.35;101184.31;6048820;28;20038;-63
2022/09/06 04:23:56;;;;;;;7.40;4.40;;;;;;;17.00;63.56;101184.56;6035956;28;20034;-65
2022/09/06 04:26:51;;;;;;;10.30;4.70;;;;;;;16.91;63.35;101171.38;6048994;28;20389;-63
2022/09/06 04:29:46;;;;;;;7.03;4.30;;;;;;;16.88;63.43;101177.06;6047705;28;20025;-63
2022/09/06 04:32:41;;;;;;;6.70;4.17;;;;;;;16.89;63.47;101176.91;6043170;28;20045;-64
2022/09/06 04:35:37;;;;;;;7.00;4.13;;;;;;;16.88;63.67;101190.47;6048856;28;20041;-64
2022/09/06 04:38:50;;;;;;;8.20;4.13;;;;;;;16.89;63.53;101178.75;6048032;28;20037;-66
2022/09/06 04:41:45;;;;;;;7.82;4.35;;;;;;;16.88;63.56;101193.16;6048526;28;20057;-64
2022/09/06 04:44:41;;;;;;;6.67;4.10;;;;;;;16.83;63.36;101179.44;6048096;28;20021;-64
2022/09/06 04:47:36;;;;;;;7.70;4.60;;;;;;;16.82;63.52;101202.75;6041969;28;20516;-63
2022/09/06 04:50:32;;;;;;;8.45;4.47;;;;;;;16.79;63.85;101207.59;6048008;28;20383;-65
2022/09/06 04:53:27;;;;;;;6.68;3.85;;;;;;;16.79;63.79;101204.94;6048497;28;20443;-64
2022/09/06 04:56:25;;;;;;;7.20;4.10;;;;;;;16.79;63.52;101200.41;6048458;28;20033;-63
2022/09/06 04:59:20;;;;;;;6.93;3.95;;;;;;;16.83;63.23;101198.19;6048160;28;20042;-65
2022/09/06 05:02:16;;;;;;;5.40;3.85;;;;;;;16.77;63.40;101201.59;6030859;28;20026;-63
2022/09/06 05:05:11;;;;;;;6.20;4.00;;;;;;;16.71;63.03;101196.94;6040388;28;20088;-64
2022/09/06 05:08:06;;;;;;;8.67;4.30;;;;;;;16.67;63.20;101180.38;6038721;28;20719;-65
2022/09/06 05:11:02;;;;;;;6.53;4.30;;;;;;;16.70;63.37;101189.88;6034805;28;20450;-65
2022/09/06 05:13:57;;;;;;;6.53;4.07;;;;;;;16.65;63.24;101190.41;6036815;28;20813;-62
2022/09/06 05:16:53;;;;;;;9.93;4.57;;;;;;;16.59;63.41;101180.41;6048050;28;20038;-63
2022/09/06 05:19:48;;;;;;;7.47;4.18;;;;;;;16.63;63.28;101195.13;6039605;28;20044;-63
2022/09/06 05:22:51;;;;;;;6.17;4.00;;;;;;;16.59;63.15;101183.06;6033219;28;20378;-63
2022/09/06 05:25:47;;;;;;;7.20;4.07;;;;;;;16.60;63.49;101193.59;6047271;28;20779;-63
2022/09/06 05:28:42;;;;;;;8.10;3.85;;;;;;;16.56;63.43;101175.38;6043042;28;20038;-63
2022/09/06 05:31:38;;;;;;;6.37;4.47;;;;;;;16.51;63.28;101183.91;6046833;28;20602;-65
2022/09/06 05:34:33;;;;;;;7.93;4.30;;;;;;;16.47;63.22;101174.53;6036437;28;20037;-62
2022/09/06 05:37:28;;;;;;;5.90;3.60;;;;;;;16.49;63.64;101182.41;6037304;28;20068;-63
2022/09/06 05:40:24;;;;;;;9.33;4.17;;;;;;;16.52;63.49;101188.25;6040831;28;20038;-64
2022/09/06 05:43:19;;;;;;;6.23;3.33;;;;;;;16.43;63.14;101167.88;6040841;28;20053;-63
2022/09/06 05:46:15;;;;;;;5.40;3.30;;;;;;;16.26;63.67;101126.09;6027959;28;20121;-64
2022/09/06 05:49:11;;;;;;;8.18;4.25;;;;;;;16.45;63.55;101155.16;6030328;28;20030;-65
2022/09/06 05:52:07;;;;;;;6.45;3.80;;;;;;;16.46;63.53;101162.19;6046530;28;20026;-63
2022/09/06 05:55:03;;;;;;;7.03;3.95;;;;;;;16.43;63.24;101146.47;6039823;28;20042;-63
2022/09/06 05:57:58;;;;;;;8.00;4.10;;;;;;;16.53;63.38;101154.31;6036857;28;20759;-66
2022/09/06 06:01:06;;;;;;;7.03;3.83;;;;;;;16.49;63.15;101148.44;6038765;28;20042;-64
2022/09/06 06:04:03;;;;;;;10.88;4.40;;;;;;;16.49;62.88;101161.84;6032155;28;20028;-66
2022/09/06 06:06:59;;;;;;;6.85;3.83;;;;;;;16.50;62.64;101158.13;6038362;28;20033;-66
2022/09/06 06:09:54;;;;;;;13.63;4.30;;;;;;;16.58;62.64;101166.16;6044849;28;20033;-63
2022/09/06 06:12:49;;;;;;;6.87;3.57;;;;;;;16.53;62.80;101160.50;6041352;28;20038;-65
2022/09/06 06:15:45;;;;;;;7.65;3.67;;;;;;;16.70;62.36;101163.09;6031338;28;20497;-66
2022/09/06 06:18:41;;;;;;;8.32;3.92;;;;;;;16.75;62.50;101161.56;6031499;28;20037;-66
2022/09/06 06:21:37;;;;;;;7.57;3.80;;;;;;;16.80;62.30;101150.31;6045499;28;20041;-63
2022/09/06 06:24:33;;;;;;;5.82;3.58;;;;;;;16.84;62.00;101171.25;6044373;28;20805;-64
2022/09/06 06:27:28;;;;;;;6.32;3.55;;;;;;;16.84;61.88;101181.13;6037077;28;20050;-64
2022/09/06 06:30:23;;;;;;;8.40;4.07;;;;;;;16.74;61.90;101164.44;6035135;28;20054;-63
2022/09/06 06:33:19;;;;;;;7.73;3.60;;;;;;;16.83;62.04;101190.16;6023202;28;20034;-64
2022/09/06 06:36:14;;;;;;;6.55;3.80;;;;;;;16.82;61.77;101185.84;6039100;28;20056;-64
2022/09/06 06:39:09;;;;;;;8.13;4.13;;;;;;;16.72;61.65;101183.34;6040877;28;20041;-64
2022/09/06 06:42:05;;;;;;;8.57;4.07;;;;;;;16.77;61.87;101188.22;6044712;28;20057;-64
2022/09/06 06:45:00;;;;;;;8.88;4.25;;;;;;;16.86;61.49;101179.09;6041605;28;20931;-66
2022/09/06 06:47:55;;;;;;;9.03;4.20;;;;;;;16.94;61.28;101187.94;6044504;28;20038;-65
2022/09/06 06:50:50;;;;;;;9.57;3.53;;;;;;;16.96;61.56;101190.47;6030999;28;20117;-65
2022/09/06 06:53:46;;;;;;;6.53;3.90;;;;;;;16.81;61.54;101200.22;6031283;28;20529;-65
2022/09/06 06:56:44;;;;;;;8.10;3.45;;;;;;;16.87;61.39;101188.81;6041100;28;20119;-63
2022/09/06 06:59:39;;;;;;;8.48;4.13;;;;;;;16.75;61.80;101190.19;6028805;28;20412;-63
2022/09/06 07:02:34;;;;;;;6.73;3.60;;;;;;;16.72;61.21;101182.50;6034975;28;20100;-64
2022/09/06 07:05:30;;;;;;;7.03;3.60;;;;;;;16.66;61.80;101189.41;6037425;28;20030;-65
2022/09/06 07:08:25;;;;;;;7.60;3.63;;;;;;;16.75;61.39;101199.06;6027998;28;20281;-63
2022/09/06 07:11:21;;;;;;;7.50;3.63;;;;;;;16.69;62.02;101196.28;6044805;28;20026;-63
2022/09/06 07:14:17;;;;;;;9.35;3.53;;;;;;;16.62;61.96;101199.63;6034967;28;20541;-63
2022/09/06 07:17:12;;;;;;;6.93;3.80;;;;;;;16.69;62.04;101204.31;6031832;28;20033;-64
2022/09/06 07:20:08;;;;;;;5.50;3.20;;;;;;;16.56;61.95;101200.31;6040513;28;20057;-63
2022/09/06 07:23:04;;;;;;;8.40;3.92;;;;;;;16.67;62.08;101217.84;6041964;28;20489;-64
2022/09/06 07:26:00;;;;;;;5.88;3.70;;;;;;;16.86;61.52;101236.19;6036871;28;20042;-64
2022/09/06 07:28:57;;;;;;;8.80;3.30;;;;;;;17.08;60.49;101226.56;6045497;28;20040;-64
2022/09/06 07:31:56;;;;;;;9.95;3.97;;;;;;;17.17;60.29;101230.88;6036061;28;20030;-65
2022/09/06 07:34:51;;;;;;;6.70;3.25;;;;;;;17.18;60.35;101236.03;6029574;28;20030;-63
2022/09/06 07:37:51;;;;;;;8.30;3.70;;;;;;;17.12;60.72;101233.25;6032736;28;20093;-65
2022/09/06 07:40:53;;;;;;;7.78;3.38;;;;;;;17.07;60.43;101220.34;6034540;28;20109;-65
2022/09/06 07:43:53;;;;;;;6.55;3.55;;;;;;;17.24;60.40;101231.81;6044781;28;20038;-64
2022/09/06 07:46:48;;;;;;;5.20;3.22;;;;;;;17.24;59.73;101221.09;6038929;28;20088;-64
2022/09/06 07:49:43;;;;;;;6.47;3.57;;;;;;;17.37;60.14;101231.22;6041780;28;20498;-63
2022/09/06 07:52:39;;;;;;;5.10;3.53;;;;;;;17.46;59.67;101222.97;6038534;28;20364;-65
2022/09/06 07:55:34;;;;;;;9.77;3.40;;;;;;;17.56;59.00;101226.28;6033457;28;20048;-63
2022/09/06 07:58:29;;;;;;;10.55;3.45;;;;;;;17.70;58.49;101228.19;6030033;28;20157;-65
2022/09/06 08:01:35;;;;;;;6.07;3.30;;;;;;;17.70;58.49;101233.56;6039025;28;20050;-64
2022/09/06 08:04:30;;;;;;;8.63;3.60;;;;;;;17.71;58.70;101240.59;6029904;28;20057;-63
2022/09/06 08:07:26;;;;;;;8.47;3.43;;;;;;;17.61;58.84;101228.44;6039169;28;20107;-65
2022/09/06 08:10:21;;;;;;;6.93;3.73;;;;;;;17.37;59.68;101209.78;6037695;28;20456;-64
2022/09/06 08:13:16;;;;;;;8.33;3.63;;;;;;;17.57;59.26;101236.00;6031537;28;20036;-63
2022/09/06 08:16:12;;;;;;;8.60;3.57;;;;;;;17.62;59.17;101236.28;6028212;28;20042;-63
2022/09/06 08:19:08;;;;;;;5.70;3.30;;;;;;;17.56;60.17;101242.38;6049696;28;20057;-64
2022/09/06 08:22:03;;;;;;;6.65;3.38;;;;;;;17.36;61.47;101253.72;6037655;28;20702;-64
2022/09/06 08:24:58;;;;;;;8.53;3.83;;;;;;;17.04;63.67;101238.66;6046697;28;20083;-63
2022/09/06 08:27:53;;;;;;;10.33;3.67;;;;;;;16.90;66.90;101264.34;6049172;28;20269;-64
2022/09/06 08:30:49;;;;;;;7.93;3.73;;;;;;;16.63;69.24;101244.13;6048490;28;20034;-64
2022/09/06 08:33:46;;;;;;;9.80;4.07;;;;;;;16.52;72.16;101262.41;6039372;28;20061;-63
2022/09/06 08:36:42;;;;;;;12.68;4.05;;;;;;;16.32;72.07;101272.63;6048569;28;20033;-63
2022/09/06 08:39:38;;;;;;;12.90;4.70;;;;;;;16.03;76.88;101256.28;6047466;28;20048;-65
2022/09/06 08:42:38;;;;;;;10.53;3.67;;;;;;;15.75;78.82;101260.28;6041138;28;20038;-65
2022/09/06 08:45:33;;;;;;;;;;;;;;;15.55;79.45;101250.88;6034777;28;20018;-64
2022/09/06 08:48:32;;;;;;;9.82;4.32;;;;;;;15.30;81.73;101248.13;6057733;28;19929;-66
2022/09/06 08:51:40;;;;;;;15.15;5.72;;;;;;;15.17;84.75;101254.94;6032331;28;20065;-66
2022/09/06 08:54:47;;;;;;;19.38;6.13;;;;;;;14.93;89.36;101234.34;6037873;28;20026;-68
2022/09/06 08:58:03;;;;;;;12.93;5.20;;;;;;;14.98;92.21;101240.03;6044463;28;20042;-65
2022/09/06 09:01:06;;;;;;;10.25;5.88;;;;;;;14.99;94.34;101217.66;6027916;28;20387;-64
2022/09/06 09:04:04;;;;;;;11.00;5.45;;;;;;;15.17;94.92;101209.53;6033167;28;20187;-64
2022/09/06 09:07:28;;;;;;;12.52;5.20;;;;;;;15.24;94.62;101222.09;6042534;28;20073;-63
2022/09/06 09:10:29;;;;;;;7.93;5.28;;;;;;;15.54;93.23;101209.13;6042805;28;20034;-64
2022/09/06 09:13:47;;;;;;;11.68;5.53;;;;;;;16.40;94.57;101207.53;6045965;28;20120;-64
2022/09/06 09:16:43;;;;;;;11.70;4.72;;;;;;;16.58;92.53;101192.94;6026900;28;20034;-65
2022/09/06 09:19:40;;;;;;;7.70;4.15;;;;;;;16.88;90.61;101185.09;6033398;28;20576;-65
2022/09/06 09:22:38;;;;;;;9.15;4.32;;;;;;;16.96;85.91;101187.78;6052221;28;20034;-64
2022/09/06 09:25:33;;;;;;;9.63;3.92;;;;;;;17.57;89.28;101190.41;6037349;28;20027;-64
2022/09/06 09:28:29;;;;;;;10.05;3.78;;;;;;;17.27;82.07;101180.53;6043294;28;20046;-65
2022/09/06 09:31:35;;;;;;;9.40;3.92;;;;;;;17.68;81.76;101163.16;6045880;28;20117;-65
2022/09/06 09:34:34;;;;;;;7.28;3.67;;;;;;;17.70;80.43;101163.81;6046888;28;20091;-65
2022/09/06 09:37:30;;;;;;;6.10;3.60;;;;;;;17.62;76.60;101142.41;6047472;28;20029;-64
2022/09/06 09:40:25;;;;;;;6.93;4.00;;;;;;;17.86;72.44;101146.72;6046883;28;20547;-64
2022/09/06 09:43:23;;;;;;;5.63;2.95;;;;;;;18.08;73.63;101126.19;6047183;28;20141;-63
2022/09/06 09:46:21;;;;;;;9.10;3.97;;;;;;;18.45;68.87;101142.22;6043798;28;20042;-64
2022/09/06 09:49:26;;;;;;;7.70;3.35;;;;;;;18.51;64.74;101144.16;6041706;28;20620;-65
2022/09/06 09:52:28;;;;;;;11.93;3.83;;;;;;;18.67;66.52;101143.97;6031290;28;20485;-64
2022/09/06 09:55:24;;;;;;;7.78;3.90;;;;;;;19.07;65.08;101137.19;6043809;28;20501;-64
2022/09/06 09:58:35;;;;;;;9.48;3.40;;;;;;;19.67;63.81;101139.47;6033656;28;20038;-64
2022/09/06 10:01:32;;;;;;;6.35;3.00;;;;;;;20.02;61.31;101141.16;6042856;28;20048;-65
2022/09/06 10:04:30;;;;;;;10.77;3.40;;;;;;;19.74;59.48;101140.34;6038982;28;20473;-64
2022/09/06 10:07:26;;;;;;;10.13;3.00;;;;;;;19.76;62.34;101132.88;6047068;28;20087;-63
2022/09/06 10:10:22;;;;;;;6.95;3.40;;;;;;;19.79;62.49;101140.56;6046019;28;20042;-64
2022/09/06 10:13:22;;;;;;;8.68;3.40;;;;;;;19.74;61.13;101126.88;6062311;28;20601;-65
2022/09/06 10:16:44;;;;;;;8.27;2.85;;;;;;;19.85;59.86;101126.34;6046869;28;20038;-65
2022/09/06 10:19:41;;;;;;;8.73;3.38;;;;;;;20.09;58.03;101101.63;6045358;28;20557;-64
2022/09/06 10:22:42;;;;;;;5.50;3.60;;;;;;;20.31;56.83;101120.44;6044720;28;20041;-64
2022/09/06 10:25:42;;;;;;;9.68;3.00;;;;;;;20.33;58.04;101115.69;6045446;28;20765;-64
2022/09/06 10:28:42;;;;;;;6.63;3.70;;;;;;;20.64;56.30;101116.88;6045255;28;20049;-65
2022/09/06 10:31:37;;;;;;;5.85;3.40;;;;;;;20.31;58.24;101123.97;6045856;28;20038;-64
2022/09/06 10:34:49;;;;;;;7.32;3.13;;;;;;;21.04;56.84;101104.31;6046586;28;20073;-64
2022/09/06 10:37:50;;;;;;;5.90;2.95;;;;;;;21.33;56.53;101106.66;6043347;28;20037;-66
2022/09/06 10:41:19;;;;;;;5.50;2.92;;;;;;;21.52;53.12;101115.84;6045804;28;20030;-64
2022/09/06 10:44:27;;;;;;;5.72;3.03;;;;;;;22.05;53.12;101103.13;6039202;28;20061;-65
2022/09/06 10:47:31;;;;;;;7.22;3.30;;;;;;;21.64;52.77;101097.97;6046166;28;20038;-65
2022/09/06 10:50:49;;;;;;;6.60;3.42;;;;;;;21.20;52.59;101117.44;6060650;28;20445;-64
2022/09/06 10:54:01;;;;;;;8.70;3.40;;;;;;;20.99;53.09;101114.91;6032278;28;20081;-65
2022/09/06 10:57:14;;;;;;;6.18;2.95;;;;;;;20.91;53.63;101111.56;6041128;28;20034;-64
2022/09/06 11:00:13;;;;;;;14.02;3.22;;;;;;;20.91;53.12;101116.94;6045072;28;20029;-64
2022/09/06 11:03:23;;;;;;;7.03;2.90;;;;;;;21.10;53.67;101117.03;6031665;28;20042;-63
2022/09/06 11:06:22;;;;;;;5.18;3.20;;;;;;;20.84;53.31;101111.56;6032692;28;20095;-63
2022/09/06 11:09:27;;;;;;;4.68;2.60;;;;;;;20.84;53.32;101110.72;6041461;28;20460;-65
2022/09/06 11:12:44;;;;;;;5.75;2.90;;;;;;;20.90;52.98;101120.69;6041712;28;20034;-65
2022/09/06 11:16:03;;;;;;;6.40;2.85;;;;;;;21.04;52.94;101122.38;6045459;28;20034;-65
2022/09/06 11:19:08;;;;;;;10.80;3.30;;;;;;;20.98;52.95;101102.44;6045465;28;20037;-64
2022/09/06 11:22:18;;;;;;;8.60;3.35;;;;;;;20.76;53.62;101123.31;6045206;28;20532;-65
2022/09/06 11:25:41;;;;;;;5.28;2.78;;;;;;;21.01;51.81;101123.59;6044712;28;20026;-65
2022/09/06 11:28:46;;;;;;;5.68;2.70;;;;;;;20.86;51.97;101112.16;6040531;28;20084;-65
2022/09/06 11:31:56;;;;;;;6.80;3.08;;;;;;;21.03;50.40;101110.78;6043106;28;20544;-64
2022/09/06 11:34:56;;;;;;;6.18;2.50;;;;;;;21.02;52.33;101117.19;6045371;28;20037;-65
2022/09/06 11:38:00;;;;;;;7.93;2.90;;;;;;;21.20;50.99;101100.44;6039808;28;20042;-66
2022/09/06 11:40:59;;;;;;;6.70;2.92;;;;;;;21.05;51.83;101100.59;6024279;28;20120;-65
2022/09/06 11:43:54;;;;;;;6.50;2.47;;;;;;;21.48;50.69;101092.97;6040876;28;20053;-65
2022/09/06 11:46:50;;;;;;;9.23;2.70;;;;;;;21.86;50.00;101101.25;6037917;28;20169;-63
2022/09/06 11:49:46;;;;;;;5.13;2.72;;;;;;;21.79;49.37;101084.25;6043482;28;20041;-64
2022/09/06 11:52:48;;;;;;;5.83;2.60;;;;;;;22.06;48.90;101090.44;6043631;28;22090;-65
2022/09/06 11:56:08;;;;;;;10.23;2.80;;;;;;;22.11;49.97;101072.56;6042816;28;20726;-65
2022/09/06 11:59:24;;;;;;;6.85;3.10;;;;;;;21.96;49.04;101071.97;6047281;28;20132;-65
2022/09/06 12:02:34;;;;;;;8.65;2.60;;;;;;;22.56;48.40;101070.72;6044190;28;20122;-65
2022/09/06 12:05:30;;;;;;;7.65;2.70;;;;;;;22.30;48.14;101066.28;6033840;28;20100;-63
2022/09/06 12:08:30;;;;;;;6.03;2.75;;;;;;;22.71;47.38;101051.53;6043150;28;20505;-63
2022/09/06 12:11:44;;;;;;;6.00;2.83;;;;;;;22.96;47.15;101068.66;6046368;28;20038;-64
2022/09/06 12:14:42;;;;;;;8.25;3.25;;;;;;;22.90;46.78;101053.28;6032645;28;20088;-63
2022/09/06 12:17:46;;;;;;;7.38;2.45;;;;;;;23.08;46.14;101047.97;6034137;28;20120;-63
2022/09/06 12:20:47;;;;;;;9.77;3.08;;;;;;;23.30;45.53;101054.66;6033234;28;20075;-62
2022/09/06 12:23:42;;;;;;;7.65;3.05;;;;;;;23.21;47.32;101049.75;6047321;28;20036;-62
2022/09/06 12:27:08;;;;;;;8.50;3.40;;;;;;;23.43;45.43;101043.75;6048887;28;20045;-63
2022/09/06 12:30:07;;;;;;;;;;;;;;;23.49;46.30;101036.59;6042352;28;20025;-64
2022/09/06 12:33:31;;;;;;;6.88;2.72;;;;;;;23.69;45.67;101029.13;6038327;28;20041;-65
2022/09/06 12:36:30;;;;;;;7.05;3.00;;;;;;;23.64;45.83;101027.06;6044606;28;20038;-64
2022/09/06 12:39:26;;;;;;;12.05;3.50;;;;;;;24.01;45.40;101040.66;6046385;28;20026;-63
2022/09/06 12:42:21;;;;;;;5.95;3.53;;;;;;;23.80;45.29;101025.69;6038675;28;20113;-64
2022/09/06 12:45:18;;;;;;;5.95;3.05;;;;;;;24.00;45.30;101039.00;6037570;28;20046;-63
2022/09/06 12:48:34;;;;;;;9.23;3.63;;;;;;;24.17;44.58;101034.66;6045624;28;20541;-65
2022/09/06 12:51:29;;;;;;;7.70;3.10;;;;;;;24.22;44.78;101037.50;6035421;28;20380;-64
2022/09/06 12:54:25;;;;;;;8.48;3.28;;;;;;;24.14;44.77;101018.84;6041054;28;20041;-65
2022/09/06 12:57:22;;;;;;;14.13;3.00;;;;;;;24.40;43.89;101015.81;6041844;28;20118;-63
2022/09/06 13:00:19;;;;;;;9.55;3.28;;;;;;;24.65;44.49;101013.78;6040571;28;20545;-64
2022/09/06 13:03:34;;;;;;;5.13;2.85;;;;;;;24.82;43.85;101013.97;6028208;28;20026;-63
2022/09/06 13:06:35;;;;;;;9.00;3.38;;;;;;;24.92;43.22;101000.69;6032237;28;20126;-65
2022/09/06 13:09:30;;;;;;;5.82;3.20;;;;;;;24.77;43.80;100992.94;6034097;28;20125;-64
2022/09/06 13:12:31;;;;;;;6.22;2.55;;;;;;;25.30;44.21;100989.41;6045304;28;20095;-65
2022/09/06 13:15:29;;;;;;;9.60;3.35;;;;;;;25.26;42.87;100996.34;6035673;28;20027;-64
2022/09/06 13:18:35;;;;;;;5.55;3.00;;;;;;;24.87;42.78;100983.44;6047775;28;20041;-63
2022/09/06 13:21:34;;;;;;;;;;;;;;;24.79;42.70;100987.31;6047051;28;20036;-65
2022/09/06 13:24:47;;;;;;;6.45;3.20;;;;;;;25.09;43.42;100984.53;6052431;28;20315;-65
2022/09/06 13:27:44;;;;;;;8.05;3.53;;;;;;;25.43;43.12;100962.00;6047889;28;20037;-66
2022/09/06 13:30:41;;;;;;;9.85;3.70;;;;;;;25.61;42.04;100959.16;6035503;28;20054;-65
2022/09/06 13:33:36;;;;;;;6.30;3.63;;;;;;;25.11;42.54;100966.13;6029127;28;20446;-65
2022/09/06 13:36:32;;;;;;;8.50;3.45;;;;;;;25.41;42.81;100954.06;6047319;28;20116;-65
2022/09/06 13:39:38;;;;;;;5.28;3.58;;;;;;;25.60;42.39;100951.28;6042277;28;20065;-67
2022/09/06 13:42:37;;;;;;;7.53;3.22;;;;;;;25.68;41.94;100942.75;6041161;28;20037;-65
2022/09/06 13:45:33;;;;;;;6.28;3.58;;;;;;;25.49;42.11;100950.22;6035205;28;20032;-65
2022/09/06 13:48:28;;;;;;;8.43;3.05;;;;;;;25.39;41.77;100948.06;6041448;28;20483;-64
2022/09/06 13:51:25;;;;;;;8.27;2.80;;;;;;;25.64;41.77;100947.00;6046783;28;20121;-66
2022/09/06 13:54:21;;;;;;;7.05;3.95;;;;;;;25.70;42.11;100938.72;6044747;28;20041;-64